Terminal Aerodrome Forecast
Issued by NWS Jackson, KY

Home | Current Version | Previous Version | Text Only | Print | Product List | Glossary On
Versions: 1 2 3 4 5 6 7 8 9 10 11 12 13 14 15 16 17 18 19
000
FTUS43 KJKL 170657 AAB
TAFLOZ
TAF AMD
KLOZ 170657Z 1707/1806 VRB03KT 3SM BR SCT200
      TEMPO 1709/1712 1/4SM FG OVC003
     FM171600 VRB05KT P6SM VCSH SCT020 BKN060
     FM172000 23007KT P6SM VCTS SCT045CB BKN150
     FM180100 VRB04KT P6SM BKN150=

USA.gov is the U.S. government's official web portal to all federal, state and local government web resources and services.